Time;durP1;ratioP1;P1;durP2;ratioP2;P2;SDS_P1;SDS_P2;PMS_P1;PMS_P2;Temp;Humidity;BMP_temperature;BMP_pressure;BME280_temperature;BME280_humidity;BME280_pressure;Samples;Min_cycle;Max_cycle;Signal;HPM_P1;HPM_P2
2022/04/29 00:01:01;;;;;;;8.95;2.33;;;8.00;99.90;;;;;;6101464;23;20022;-73
2022/04/29 00:03:27;;;;;;;7.20;2.85;;;8.00;99.90;;;;;;6126659;23;20017;-74
2022/04/29 00:05:56;;;;;;;9.38;2.05;;;8.00;99.90;;;;;;6103323;23;20018;-74
2022/04/29 00:08:24;;;;;;;10.63;3.00;;;8.00;99.90;;;;;;6150896;23;20026;-74
2022/04/29 00:10:50;;;;;;;6.75;1.90;;;8.00;99.90;;;;;;6151112;23;20480;-75
2022/04/29 00:13:17;;;;;;;6.35;1.92;;;8.00;99.90;;;;;;6186342;23;20025;-74
2022/04/29 00:15:43;;;;;;;5.95;2.22;;;8.00;99.90;;;;;;6186769;23;20107;-74
2022/04/29 00:18:09;;;;;;;8.07;2.50;;;7.90;99.90;;;;;;6213836;23;20052;-74
2022/04/29 00:20:38;;;;;;;8.35;2.20;;;7.90;99.90;;;;;;6186957;23;20025;-74
2022/04/29 00:23:04;;;;;;;8.43;2.20;;;7.90;99.90;;;;;;6237218;23;20464;-74
2022/04/29 00:25:30;;;;;;;5.05;1.73;;;7.90;99.90;;;;;;6186624;23;20031;-74
2022/04/29 00:27:58;;;;;;;7.85;2.38;;;7.90;99.90;;;;;;6236839;23;20099;-74
2022/04/29 00:30:28;;;;;;;7.00;2.05;;;7.90;99.90;;;;;;6186514;23;20024;-75
2022/04/29 00:32:54;;;;;;;8.18;2.00;;;7.80;99.90;;;;;;6211011;23;20036;-74
2022/04/29 00:35:24;;;;;;;9.63;2.42;;;7.80;99.90;;;;;;6213795;23;20025;-74
2022/04/29 00:37:52;;;;;;;4.95;1.98;;;7.80;99.90;;;;;;6211360;23;20048;-76
2022/04/29 00:40:20;;;;;;;7.40;2.10;;;7.80;99.90;;;;;;6236972;23;20508;-75
2022/04/29 00:42:48;;;;;;;5.65;2.22;;;7.80;99.90;;;;;;6210956;23;20396;-75
2022/04/29 00:45:17;;;;;;;5.38;2.13;;;7.80;99.90;;;;;;6186190;23;20471;-74
2022/04/29 00:47:49;;;;;;;9.95;2.67;;;7.80;99.90;;;;;;6186574;23;20483;-75
2022/04/29 00:50:17;;;;;;;8.25;1.95;;;7.80;99.90;;;;;;6192188;23;20052;-74
2022/04/29 00:52:46;;;;;;;8.25;2.13;;;7.80;99.90;;;;;;6237037;23;20074;-74
2022/04/29 00:55:14;;;;;;;6.25;1.67;;;7.80;99.90;;;;;;6186502;23;20024;-74
2022/04/29 00:57:52;;;;;;;6.70;2.17;;;7.80;99.90;;;;;;6213035;23;20020;-74
2022/04/29 01:00:19;;;;;;;7.97;2.15;;;7.80;99.90;;;;;;6236692;23;20032;-74
2022/04/29 01:02:47;;;;;;;7.82;2.33;;;7.80;99.90;;;;;;6212847;23;20027;-74
2022/04/29 01:05:18;;;;;;;7.82;2.13;;;7.80;99.90;;;;;;6186472;23;20078;-72
2022/04/29 01:07:46;;;;;;;10.48;2.30;;;7.80;99.90;;;;;;6186127;23;20542;-74
2022/04/29 01:10:13;;;;;;;5.95;2.40;;;7.70;99.90;;;;;;6185311;23;20433;-73
2022/04/29 01:13:06;;;;;;;6.05;2.00;;;7.80;99.90;;;;;;6185909;23;20360;-76
2022/04/29 01:15:55;;;;;;;7.65;2.20;;;7.70;99.90;;;;;;6213513;23;20052;-74
2022/04/29 01:18:23;;;;;;;5.20;2.28;;;7.70;99.90;;;;;;6210915;23;20027;-75
2022/04/29 01:21:12;;;;;;;9.77;2.65;;;7.70;99.90;;;;;;6154691;23;20354;-75
2022/04/29 01:23:38;;;;;;;5.20;1.90;;;7.70;99.90;;;;;;6154029;23;20073;-74
2022/04/29 01:26:07;;;;;;;7.75;2.40;;;7.70;99.90;;;;;;6155147;23;20199;-73
2022/04/29 01:28:35;;;;;;;8.18;2.00;;;7.70;99.90;;;;;;6154323;23;20091;-74
2022/04/29 01:31:15;;;;;;;7.72;2.20;;;7.80;99.90;;;;;;6180049;23;20032;-75
2022/04/29 01:33:55;;;;;;;13.52;2.67;;;7.80;99.90;;;;;;6154432;23;20021;-77
2022/04/29 01:36:20;;;;;;;7.22;1.90;;;7.70;99.90;;;;;;6129736;23;20071;-75
2022/04/29 01:38:46;;;;;;;6.28;1.70;;;7.80;99.90;;;;;;6154353;23;20061;-74
2022/04/29 01:41:13;;;;;;;6.60;1.80;;;7.70;99.90;;;;;;6155115;23;20036;-73
2022/04/29 01:43:40;;;;;;;9.00;1.95;;;7.80;99.90;;;;;;6154751;23;20811;-75
2022/04/29 01:46:06;;;;;;;6.50;1.90;;;7.80;99.90;;;;;;6150736;23;20024;-74
2022/04/29 01:48:32;;;;;;;6.68;1.88;;;7.80;99.90;;;;;;6154928;23;20025;-75
2022/04/29 01:51:06;;;;;;;5.97;2.05;;;7.80;99.90;;;;;;6106317;23;20453;-78
2022/04/29 01:53:35;;;;;;;10.77;2.65;;;7.80;99.90;;;;;;6155710;23;20084;-75
2022/04/29 01:56:11;;;;;;;6.30;2.13;;;7.80;99.90;;;;;;6180983;23;20452;-74
2022/04/29 01:58:37;;;;;;;6.45;2.78;;;7.80;99.90;;;;;;6131414;23;20028;-74
2022/04/29 02:01:06;;;;;;;7.95;2.15;;;7.80;99.90;;;;;;6155995;23;20033;-75
2022/04/29 02:03:35;;;;;;;8.85;1.90;;;7.80;99.90;;;;;;6131262;23;20084;-74
2022/04/29 02:06:01;;;;;;;11.25;2.83;;;7.80;99.90;;;;;;6155111;23;20025;-75
2022/04/29 02:08:27;;;;;;;6.47;1.83;;;7.80;99.90;;;;;;6154235;23;20469;-74
2022/04/29 02:10:54;;;;;;;7.47;2.53;;;7.70;99.90;;;;;;6163493;23;20032;-75
2022/04/29 02:13:20;;;;;;;6.20;2.15;;;7.70;99.90;;;;;;6210970;23;20464;-74
2022/04/29 02:15:51;;;;;;;8.57;2.30;;;7.70;99.90;;;;;;6185622;23;20021;-76
2022/04/29 02:18:22;;;;;;;10.38;2.45;;;7.70;99.90;;;;;;6209856;23;20021;-73
2022/04/29 02:20:49;;;;;;;8.32;2.22;;;7.80;99.90;;;;;;6185671;23;20029;-74
2022/04/29 02:23:15;;;;;;;6.80;2.10;;;7.80;99.90;;;;;;6185969;23;20352;-73
2022/04/29 02:25:43;;;;;;;6.15;1.70;;;7.80;99.90;;;;;;6185632;23;20021;-74
2022/04/29 02:28:09;;;;;;;11.90;1.90;;;7.90;99.90;;;;;;6185498;23;20028;-74
2022/04/29 02:30:34;;;;;;;13.35;3.13;;;7.90;99.90;;;;;;6185566;23;20043;-74
2022/04/29 02:33:00;;;;;;;7.15;2.08;;;7.90;99.90;;;;;;6185590;23;20389;-76
2022/04/29 02:35:27;;;;;;;10.32;3.83;;;7.90;99.90;;;;;;6185860;23;20032;-75
2022/04/29 02:37:58;;;;;;;11.02;3.55;;;7.90;99.90;;;;;;6236946;23;20024;-76
2022/04/29 02:40:29;;;;;;;9.68;2.40;;;8.00;99.90;;;;;;6235064;23;20025;-73
2022/04/29 02:42:57;;;;;;;8.95;2.28;;;8.00;99.90;;;;;;6185913;23;20530;-76
2022/04/29 02:45:26;;;;;;;7.70;2.45;;;8.00;99.90;;;;;;6211476;23;20348;-76
2022/04/29 02:47:53;;;;;;;5.78;2.15;;;8.00;99.90;;;;;;6210587;23;20028;-75
2022/04/29 02:50:20;;;;;;;7.10;1.92;;;8.00;99.90;;;;;;6163680;23;20074;-75
2022/04/29 02:52:46;;;;;;;8.50;2.13;;;8.00;99.90;;;;;;6212889;23;20095;-75
2022/04/29 02:55:14;;;;;;;5.13;1.70;;;7.90;99.90;;;;;;6187617;23;20166;-75
2022/04/29 02:57:40;;;;;;;6.97;2.13;;;7.80;99.90;;;;;;6215187;23;20079;-74
2022/04/29 03:00:06;;;;;;;6.68;1.80;;;7.80;99.90;;;;;;6213317;23;20107;-73
2022/04/29 03:02:33;;;;;;;5.07;1.90;;;7.80;99.90;;;;;;6213468;23;20407;-74
2022/04/29 03:05:01;;;;;;;5.63;1.85;;;7.70;99.90;;;;;;6215402;23;20356;-75
2022/04/29 03:07:28;;;;;;;7.05;1.90;;;7.80;99.90;;;;;;6167068;23;20100;-74
2022/04/29 03:09:54;;;;;;;13.73;3.20;;;7.90;99.90;;;;;;6195563;23;20059;-74
2022/04/29 03:12:35;;;;;;;5.28;1.60;;;7.90;99.90;;;;;;6247466;23;20024;-74
2022/04/29 03:15:15;;;;;;;6.53;1.67;;;7.90;99.90;;;;;;6195870;23;20025;-74
2022/04/29 03:18:22;;;;;;;7.45;1.67;;;7.90;99.90;;;;;;6233236;23;20024;-74
2022/04/29 03:20:53;;;;;;;6.30;2.08;;;7.80;99.90;;;;;;6214161;23;20031;-74
2022/04/29 03:23:24;;;;;;;7.13;2.05;;;7.90;99.90;;;;;;6209208;23;20095;-74
2022/04/29 03:26:05;;;;;;;8.13;2.10;;;7.90;99.90;;;;;;6233475;23;20016;-74
2022/04/29 03:28:32;;;;;;;7.05;1.85;;;7.90;99.90;;;;;;6187431;23;20496;-74
2022/04/29 03:31:17;;;;;;;5.63;1.73;;;7.90;99.90;;;;;;6166758;23;20024;-74
2022/04/29 03:33:56;;;;;;;11.80;3.22;;;7.90;99.90;;;;;;6213171;23;20024;-74
2022/04/29 03:36:22;;;;;;;6.47;2.33;;;7.90;99.90;;;;;;6237220;23;20114;-75
2022/04/29 03:38:48;;;;;;;4.28;1.95;;;7.90;99.90;;;;;;6187649;23;20452;-74
2022/04/29 03:41:13;;;;;;;8.68;1.77;;;7.80;99.90;;;;;;6187272;23;20031;-74
2022/04/29 03:43:39;;;;;;;7.53;1.80;;;7.90;99.90;;;;;;6214352;23;20371;-74
2022/04/29 03:46:05;;;;;;;9.25;1.85;;;7.80;99.90;;;;;;6162221;23;20032;-74
2022/04/29 03:51:39;;;;;;;6.53;2.15;;;7.90;99.90;;;;;;6186915;23;20021;-75
2022/04/29 03:54:25;;;;;;;6.00;2.08;;;7.90;99.90;;;;;;6185023;23;20056;-75
2022/04/29 03:56:52;;;;;;;6.93;1.90;;;7.90;99.90;;;;;;6160624;23;20044;-75
2022/04/29 03:59:20;;;;;;;4.82;1.50;;;7.90;99.90;;;;;;6185309;23;20016;-74
2022/04/29 04:01:46;;;;;;;7.78;1.60;;;7.90;99.90;;;;;;6160693;23;20492;-74
2022/04/29 04:04:13;;;;;;;5.20;1.75;;;7.90;99.90;;;;;;6210932;23;20027;-74
2022/04/29 04:06:51;;;;;;;7.00;2.50;;;7.90;99.90;;;;;;6210768;23;20123;-74
2022/04/29 04:09:22;;;;;;;9.73;1.90;;;7.90;99.90;;;;;;6210618;23;20059;-75
2022/04/29 04:11:52;;;;;;;7.47;2.08;;;7.90;99.90;;;;;;6210712;23;20013;-75
2022/04/29 04:14:19;;;;;;;5.57;1.65;;;7.80;99.90;;;;;;6210564;23;20021;-74
2022/04/29 04:16:45;;;;;;;9.98;1.70;;;7.90;99.90;;;;;;6210844;23;20025;-75
2022/04/29 04:19:19;;;;;;;;;;;7.90;99.90;;;;;;6163002;23;20518;-74
2022/04/29 04:21:48;;;;;;;7.78;1.80;;;7.90;99.90;;;;;;6186058;23;19923;-75
2022/04/29 04:24:27;;;;;;;7.80;2.33;;;7.90;99.90;;;;;;6162713;23;20027;-75
2022/04/29 04:26:53;;;;;;;7.72;2.10;;;7.90;99.90;;;;;;6210980;23;20020;-75
2022/04/29 04:29:23;;;;;;;5.35;1.83;;;7.90;99.90;;;;;;6236732;22;20067;-75
2022/04/29 04:31:53;;;;;;;12.15;2.17;;;7.90;99.90;;;;;;6213527;23;20021;-76
2022/04/29 04:37:03;;;;;;;15.53;4.07;;;7.90;99.90;;;;;;6207837;23;20021;-75
2022/04/29 04:39:32;;;;;;;6.10;1.75;;;7.90;99.90;;;;;;6213807;23;20020;-74
2022/04/29 04:42:01;;;;;;;5.90;2.00;;;7.90;99.90;;;;;;6186577;23;20024;-74
2022/04/29 04:44:31;;;;;;;6.57;1.65;;;8.00;99.90;;;;;;6187931;23;20092;-75
2022/04/29 04:46:58;;;;;;;7.22;1.70;;;8.00;99.90;;;;;;6211034;23;20103;-76
2022/04/29 04:49:29;;;;;;;5.65;1.40;;;8.00;99.90;;;;;;6162719;23;20026;-77
2022/04/29 04:51:56;;;;;;;6.63;1.52;;;8.10;99.90;;;;;;6235264;23;20025;-75
2022/04/29 04:54:25;;;;;;;8.07;1.58;;;8.10;99.90;;;;;;6212991;23;20511;-76
2022/04/29 04:56:54;;;;;;;9.02;1.80;;;8.10;99.90;;;;;;6149124;23;20035;-76
2022/04/29 04:59:21;;;;;;;5.60;1.70;;;8.20;99.90;;;;;;6175324;23;20096;-75
2022/04/29 05:01:50;;;;;;;8.63;1.88;;;8.20;99.90;;;;;;6175101;23;20105;-75
2022/04/29 05:04:17;;;;;;;4.47;1.40;;;8.30;99.90;;;;;;6150220;23;20100;-76
2022/04/29 05:06:43;;;;;;;7.82;1.80;;;8.30;99.90;;;;;;6125865;23;20025;-75
2022/04/29 05:09:09;;;;;;;5.75;1.42;;;8.30;99.90;;;;;;6150639;23;20488;-75
2022/04/29 05:11:36;;;;;;;6.15;2.05;;;8.40;99.90;;;;;;6124814;23;20056;-75
2022/04/29 05:14:03;;;;;;;4.57;1.55;;;8.50;99.90;;;;;;6101520;23;20080;-75
2022/04/29 05:16:29;;;;;;;6.80;2.05;;;8.50;99.90;;;;;;6125588;23;20533;-77
2022/04/29 05:18:58;;;;;;;6.18;1.10;;;8.50;99.90;;;;;;6150911;23;20021;-76
2022/04/29 05:21:24;;;;;;;6.95;2.28;;;8.60;99.90;;;;;;6126864;23;20065;-76
2022/04/29 05:23:49;;;;;;;6.50;1.80;;;8.60;99.90;;;;;;6175990;23;20029;-75
2022/04/29 05:26:16;;;;;;;3.88;1.60;;;8.70;99.90;;;;;;6125898;23;20024;-75
2022/04/29 05:28:42;;;;;;;9.00;1.55;;;8.70;99.90;;;;;;6177891;22;20060;-75
2022/04/29 05:31:08;;;;;;;8.57;1.73;;;8.80;99.90;;;;;;6186064;23;20084;-76
2022/04/29 05:33:36;;;;;;;7.68;1.63;;;8.80;99.90;;;;;;6236899;23;20035;-75
2022/04/29 05:36:06;;;;;;;6.97;1.27;;;8.80;99.90;;;;;;6186413;23;20025;-75
2022/04/29 05:44:06;;;;;;;11.93;1.98;;;8.90;99.90;;;;;;6205947;23;20021;-75
2022/04/29 05:46:32;;;;;;;5.82;1.42;;;8.90;99.90;;;;;;6236688;23;20024;-76
2022/04/29 05:49:04;;;;;;;7.20;1.30;;;8.90;99.90;;;;;;6212825;23;20396;-76
2022/04/29 05:51:35;;;;;;;5.90;1.35;;;9.00;99.90;;;;;;6211227;23;20024;-74
2022/04/29 05:54:01;;;;;;;3.13;1.25;;;9.00;99.90;;;;;;6186140;23;20021;-76
2022/04/29 05:56:30;;;;;;;5.10;1.40;;;9.10;99.90;;;;;;6210579;23;20075;-76
2022/04/29 05:58:59;;;;;;;8.25;1.45;;;9.10;99.90;;;;;;6212951;23;20536;-76
2022/04/29 06:01:25;;;;;;;6.80;1.52;;;9.10;99.90;;;;;;6185804;23;20031;-75
2022/04/29 06:03:53;;;;;;;4.68;1.45;;;9.10;99.90;;;;;;6161222;23;20380;-74
2022/04/29 06:06:22;;;;;;;6.25;1.40;;;9.20;99.90;;;;;;6161294;23;20021;-75
2022/04/29 06:08:48;;;;;;;9.70;1.67;;;9.20;99.90;;;;;;6186122;23;20356;-76
2022/04/29 06:11:14;;;;;;;6.47;1.52;;;9.30;99.90;;;;;;6236571;23;20028;-76
2022/04/29 06:13:40;;;;;;;7.20;1.42;;;9.30;99.90;;;;;;6235560;23;20407;-74
2022/04/29 06:16:11;;;;;;;7.78;1.70;;;9.30;99.90;;;;;;6210739;23;20043;-75
2022/04/29 06:18:38;;;;;;;7.07;2.03;;;9.30;99.90;;;;;;6185881;23;20070;-75
2022/04/29 06:21:04;;;;;;;7.10;1.60;;;9.40;99.90;;;;;;6213014;23;20028;-74
2022/04/29 06:23:34;;;;;;;6.93;1.60;;;9.40;99.90;;;;;;6187569;23;20031;-75
2022/04/29 06:26:02;;;;;;;9.57;1.83;;;9.40;99.90;;;;;;6211245;23;20028;-75
2022/04/29 06:28:38;;;;;;;6.60;1.27;;;9.40;99.90;;;;;;6164961;23;20029;-77
2022/04/29 06:31:05;;;;;;;6.15;1.45;;;9.40;99.90;;;;;;6213434;23;20432;-74
2022/04/29 06:33:33;;;;;;;6.18;1.90;;;9.40;99.90;;;;;;6213097;23;20024;-75
2022/04/29 06:36:09;;;;;;;10.13;2.08;;;9.50;99.90;;;;;;6188445;23;20020;-77
2022/04/29 06:38:35;;;;;;;7.13;1.85;;;9.50;99.90;;;;;;6163173;23;20547;-76
2022/04/29 06:41:24;;;;;;;6.68;1.77;;;9.50;99.90;;;;;;6208427;23;20388;-77
2022/04/29 06:43:56;;;;;;;4.93;1.73;;;9.50;99.90;;;;;;6213284;23;20074;-77
2022/04/29 06:46:25;;;;;;;6.97;2.42;;;9.50;99.90;;;;;;6163096;23;20031;-79
2022/04/29 06:48:55;;;;;;;6.43;2.10;;;9.50;99.90;;;;;;6188560;23;20052;-75
2022/04/29 06:51:33;;;;;;;6.57;1.80;;;9.50;99.90;;;;;;6162956;23;20384;-76
2022/04/29 06:54:06;;;;;;;6.75;1.90;;;9.60;99.90;;;;;;6187567;23;20027;-75
2022/04/29 06:56:32;;;;;;;8.15;1.77;;;9.60;99.90;;;;;;6212715;23;20056;-78
2022/04/29 06:58:58;;;;;;;4.25;1.88;;;9.60;99.90;;;;;;6188487;23;20016;-76
2022/04/29 07:01:26;;;;;;;8.02;1.63;;;9.60;99.90;;;;;;6214873;23;20024;-75
2022/04/29 07:03:52;;;;;;;5.55;1.80;;;9.60;99.90;;;;;;6213582;23;20452;-77
2022/04/29 07:06:22;;;;;;;6.72;1.88;;;9.60;99.90;;;;;;6214797;23;20518;-75
2022/04/29 07:08:51;;;;;;;5.50;1.70;;;9.60;99.90;;;;;;6188332;23;20047;-75
2022/04/29 07:11:20;;;;;;;6.78;1.80;;;9.60;99.90;;;;;;6238505;23;20016;-76
2022/04/29 07:13:48;;;;;;;9.00;1.65;;;9.70;99.90;;;;;;6188307;23;20021;-74
2022/04/29 07:16:37;;;;;;;11.93;1.95;;;9.70;99.90;;;;;;6153754;23;20486;-75
2022/04/29 07:19:06;;;;;;;7.30;2.35;;;9.70;99.90;;;;;;6153893;23;20021;-76
2022/04/29 07:21:42;;;;;;;7.88;1.60;;;9.70;99.90;;;;;;6111141;23;20029;-76
2022/04/29 07:24:08;;;;;;;8.80;1.92;;;9.80;99.90;;;;;;6132521;23;20113;-76
2022/04/29 07:26:34;;;;;;;7.65;2.10;;;9.80;99.90;;;;;;6102077;23;20503;-76
2022/04/29 07:28:59;;;;;;;9.30;1.85;;;9.90;99.90;;;;;;6152085;23;20053;-76
2022/04/29 07:31:27;;;;;;;9.05;2.03;;;9.90;99.90;;;;;;6103744;23;20026;-76
2022/04/29 07:33:53;;;;;;;5.55;1.60;;;10.00;99.90;;;;;;6127088;23;20024;-75
2022/04/29 07:41:50;;;;;;;6.05;2.03;;;10.10;99.90;;;;;;6126179;23;20071;-74
2022/04/29 07:44:17;;;;;;;9.18;1.95;;;10.20;99.90;;;;;;6126483;23;20022;-76
2022/04/29 07:46:53;;;;;;;5.38;1.67;;;10.20;99.90;;;;;;6151014;23;20030;-76
2022/04/29 07:49:22;;;;;;;4.57;2.00;;;10.30;99.90;;;;;;6127036;23;20417;-75
2022/04/29 07:51:51;;;;;;;8.95;2.60;;;10.30;99.90;;;;;;6102499;23;20029;-75
2022/04/29 07:54:17;;;;;;;4.78;2.13;;;10.40;99.90;;;;;;6150662;23;20073;-75
2022/04/29 07:56:43;;;;;;;5.93;1.80;;;10.50;99.90;;;;;;6126379;23;20516;-75
2022/04/29 07:59:09;;;;;;;8.15;2.00;;;10.60;99.90;;;;;;6126323;23;20607;-75
2022/04/29 08:01:40;;;;;;;6.40;2.58;;;10.70;99.90;;;;;;6125957;23;20026;-76
2022/04/29 08:04:06;;;;;;;5.57;2.60;;;10.70;99.90;;;;;;6101990;23;20014;-75
2022/04/29 08:06:34;;;;;;;6.38;2.78;;;10.70;99.90;;;;;;6140243;23;20024;-75
2022/04/29 08:09:00;;;;;;;8.27;2.95;;;10.80;99.90;;;;;;6207417;23;20087;-74
2022/04/29 08:11:26;;;;;;;6.18;2.15;;;10.70;99.90;;;;;;6232612;23;20024;-76
2022/04/29 08:13:56;;;;;;;6.35;2.22;;;10.80;99.90;;;;;;6181867;23;20799;-75
2022/04/29 08:16:23;;;;;;;5.15;1.85;;;10.90;99.90;;;;;;6231990;23;20025;-78
2022/04/29 08:18:52;;;;;;;2.90;1.73;;;10.90;99.90;;;;;;6191660;23;20025;-77
2022/04/29 08:21:17;;;;;;;6.50;2.95;;;10.90;99.90;;;;;;6183615;23;20335;-75
2022/04/29 08:23:47;;;;;;;8.80;2.17;;;10.90;99.90;;;;;;6183938;23;20032;-77
2022/04/29 08:26:18;;;;;;;7.50;2.08;;;11.10;99.90;;;;;;6233507;23;20025;-74
2022/04/29 08:28:47;;;;;;;4.30;1.90;;;11.10;99.90;;;;;;6215651;23;20099;-78
2022/04/29 08:31:22;;;;;;;6.55;1.75;;;11.10;99.90;;;;;;6162247;23;20468;-75
2022/04/29 08:33:49;;;;;;;6.72;1.75;;;11.10;99.90;;;;;;6162052;23;20017;-76
2022/04/29 08:36:15;;;;;;;10.45;2.03;;;11.20;99.90;;;;;;6186660;23;20024;-79
2022/04/29 08:38:42;;;;;;;6.50;1.98;;;11.10;99.90;;;;;;6214113;23;20091;-75
2022/04/29 08:41:09;;;;;;;6.28;1.90;;;11.10;99.70;;;;;;6237487;23;20063;-76
2022/04/29 08:43:38;;;;;;;5.78;1.75;;;11.00;99.50;;;;;;6214236;23;20108;-76
2022/04/29 08:46:06;;;;;;;5.80;1.70;;;11.10;99.50;;;;;;6212138;23;20060;-75
2022/04/29 08:48:33;;;;;;;6.22;2.10;;;11.10;99.30;;;;;;6237419;23;20067;-76
2022/04/29 08:50:59;;;;;;;5.18;1.73;;;11.10;99.00;;;;;;6186650;23;20035;-75
2022/04/29 08:53:25;;;;;;;6.28;1.80;;;11.20;99.10;;;;;;6237669;23;20016;-74
2022/04/29 08:58:40;;;;;;;;;;;11.30;98.50;;;;;;6187343;23;20345;-75
2022/04/29 09:01:08;;;;;;;5.30;1.92;;;11.50;98.20;;;;;;6235994;23;19939;-75
2022/04/29 09:03:35;;;;;;;7.85;1.92;;;11.50;98.30;;;;;;6186313;23;20027;-77
2022/04/29 09:06:04;;;;;;;5.97;2.10;;;11.50;98.20;;;;;;6187130;23;20021;-76
2022/04/29 09:08:38;;;;;;;5.50;1.67;;;11.40;98.40;;;;;;6237534;23;20036;-78
2022/04/29 09:11:05;;;;;;;6.10;2.08;;;11.50;98.70;;;;;;6187216;23;20025;-77
2022/04/29 09:13:35;;;;;;;5.78;1.35;;;11.40;98.70;;;;;;6187341;23;20063;-77
2022/04/29 09:16:10;;;;;;;5.85;2.20;;;11.40;98.80;;;;;;6237214;23;20063;-76
2022/04/29 09:18:47;;;;;;;6.45;1.75;;;11.40;98.90;;;;;;6237012;23;20016;-77
2022/04/29 09:21:27;;;;;;;8.85;2.00;;;11.40;98.80;;;;;;6237103;23;20457;-78
2022/04/29 09:23:56;;;;;;;7.47;2.03;;;11.30;98.80;;;;;;6186428;23;20075;-77
2022/04/29 09:26:47;;;;;;;6.93;1.98;;;11.30;99.10;;;;;;6186630;23;20166;-77
2022/04/29 09:29:21;;;;;;;6.45;1.70;;;11.30;99.50;;;;;;6187900;23;20557;-77
2022/04/29 09:32:02;;;;;;;5.47;1.60;;;11.20;99.70;;;;;;6186681;23;20020;-76
2022/04/29 09:34:53;;;;;;;7.13;2.22;;;11.20;99.70;;;;;;6186715;23;20333;-76
2022/04/29 09:37:24;;;;;;;7.95;2.35;;;11.20;99.70;;;;;;6213861;23;20036;-78
2022/04/29 09:39:55;;;;;;;7.75;1.98;;;11.20;99.60;;;;;;6236989;23;20047;-78
2022/04/29 09:42:23;;;;;;;5.72;1.80;;;11.10;99.20;;;;;;6213453;23;20318;-75
2022/04/29 09:44:50;;;;;;;5.25;1.67;;;11.10;99.60;;;;;;6187004;23;20020;-76
2022/04/29 09:47:20;;;;;;;7.30;1.77;;;11.20;99.50;;;;;;6213423;23;20032;-76
2022/04/29 09:49:59;;;;;;;7.35;1.65;;;11.20;99.30;;;;;;6186594;23;20095;-77
2022/04/29 09:52:28;;;;;;;7.07;1.65;;;11.20;98.90;;;;;;6236564;23;20057;-76
2022/04/29 09:54:54;;;;;;;6.38;2.13;;;11.30;98.80;;;;;;6186382;23;20399;-75
2022/04/29 09:57:24;;;;;;;7.50;1.70;;;11.30;98.70;;;;;;6161585;23;20024;-75
2022/04/29 10:00:00;;;;;;;5.35;1.52;;;11.40;98.50;;;;;;6188247;23;20465;-77
2022/04/29 10:02:27;;;;;;;6.60;1.98;;;11.40;98.40;;;;;;6187833;23;20027;-77
2022/04/29 10:04:56;;;;;;;7.30;2.50;;;11.50;98.20;;;;;;6164399;23;20037;-75
2022/04/29 10:07:25;;;;;;;4.30;1.40;;;11.50;98.20;;;;;;6219337;23;20460;-77
2022/04/29 10:09:54;;;;;;;7.30;1.92;;;11.50;98.10;;;;;;6213081;23;20612;-76
2022/04/29 10:12:25;;;;;;;4.25;1.30;;;11.60;98.00;;;;;;6188196;23;20077;-77
2022/04/29 10:15:06;;;;;;;5.38;2.22;;;11.70;97.90;;;;;;6211843;23;20028;-77
2022/04/29 10:23:15;;;;;;;4.28;1.50;;;11.80;97.40;;;;;;6238666;23;20029;-77
2022/04/29 10:25:49;;;;;;;6.30;2.05;;;11.80;97.60;;;;;;6238455;23;20027;-77
2022/04/29 10:28:21;;;;;;;8.15;1.90;;;11.80;97.60;;;;;;6187943;23;20028;-77
2022/04/29 10:31:01;;;;;;;6.43;1.70;;;11.80;97.70;;;;;;6182608;23;20027;-76
2022/04/29 10:33:27;;;;;;;6.57;2.60;;;11.80;97.80;;;;;;6233431;23;20029;-76
2022/04/29 10:35:59;;;;;;;5.18;2.28;;;11.80;97.90;;;;;;6183108;23;20092;-78
2022/04/29 10:38:42;;;;;;;3.25;1.33;;;11.90;97.90;;;;;;6207364;23;20025;-77
2022/04/29 10:41:17;;;;;;;5.20;1.83;;;11.90;97.80;;;;;;6183239;23;20496;-77
2022/04/29 10:43:54;;;;;;;3.92;1.48;;;11.90;97.90;;;;;;6184985;23;20074;-76
2022/04/29 10:46:48;;;;;;;9.57;3.00;;;11.90;98.10;;;;;;6207718;23;20067;-77
2022/04/29 10:49:34;;;;;;;7.05;1.88;;;12.00;97.80;;;;;;6186514;23;20036;-76
2022/04/29 10:52:05;;;;;;;5.40;1.45;;;11.90;97.80;;;;;;6138623;23;20089;-74
2022/04/29 10:54:53;;;;;;;6.03;1.67;;;11.80;97.70;;;;;;6186315;23;20020;-77
2022/04/29 10:57:34;;;;;;;4.72;1.50;;;11.90;97.70;;;;;;6161216;23;20057;-76
2022/04/29 11:00:13;;;;;;;7.53;2.10;;;11.80;98.00;;;;;;6186373;23;20100;-74
2022/04/29 11:02:44;;;;;;;4.00;1.35;;;12.00;97.90;;;;;;6211816;23;20461;-76
2022/04/29 11:05:52;;;;;;;5.70;1.50;;;11.90;97.80;;;;;;6187666;23;20029;-76
2022/04/29 11:08:29;;;;;;;7.63;1.80;;;12.00;97.70;;;;;;6186232;23;20028;-77
2022/04/29 11:11:03;;;;;;;6.95;1.50;;;12.20;97.50;;;;;;6187113;23;20392;-77
2022/04/29 11:13:57;;;;;;;4.60;1.27;;;12.30;97.30;;;;;;6137072;23;20543;-76
2022/04/29 11:16:24;;;;;;;4.57;1.33;;;12.50;96.80;;;;;;6185925;23;20468;-77
2022/04/29 11:19:31;;;;;;;6.18;1.30;;;12.60;96.80;;;;;;6186466;23;20401;-76
2022/04/29 11:24:45;;;;;;;6.30;1.35;;;13.00;96.00;;;;;;6186343;23;20025;-76
2022/04/29 11:27:12;;;;;;;5.88;1.40;;;13.00;95.70;;;;;;6187401;23;20021;-77
2022/04/29 11:29:47;;;;;;;4.78;1.52;;;13.10;95.40;;;;;;6188340;23;20520;-76
2022/04/29 11:32:13;;;;;;;7.43;2.08;;;13.10;95.10;;;;;;6193344;23;20020;-79
2022/04/29 11:35:06;;;;;;;5.28;1.45;;;13.10;95.40;;;;;;6168677;23;20020;-76
2022/04/29 11:37:35;;;;;;;5.40;1.33;;;13.10;94.90;;;;;;6223300;23;20055;-77
2022/04/29 11:40:03;;;;;;;4.00;1.15;;;13.10;95.40;;;;;;6221973;23;20479;-75
2022/04/29 11:42:30;;;;;;;4.70;1.70;;;13.00;95.50;;;;;;6187072;23;20052;-77
2022/04/29 11:45:10;;;;;;;2.63;1.00;;;13.00;95.70;;;;;;6161542;23;20017;-77
2022/04/29 11:47:36;;;;;;;4.38;1.52;;;12.90;95.40;;;;;;6132661;23;20025;-77
2022/04/29 11:50:33;;;;;;;4.38;1.50;;;12.90;95.40;;;;;;6177570;23;20021;-77
2022/04/29 11:53:10;;;;;;;7.03;1.38;;;12.90;95.40;;;;;;6182575;23;20345;-76
2022/04/29 11:55:38;;;;;;;4.95;1.33;;;12.90;95.60;;;;;;6184095;23;20061;-79
2022/04/29 11:58:07;;;;;;;6.03;1.63;;;12.90;95.60;;;;;;6157358;23;20472;-78
2022/04/29 12:01:09;;;;;;;5.40;1.35;;;12.80;95.70;;;;;;6181269;23;20127;-75
2022/04/29 12:03:48;;;;;;;10.52;2.00;;;12.80;96.30;;;;;;6156765;23;20104;-77
2022/04/29 12:06:14;;;;;;;4.22;1.52;;;12.60;96.00;;;;;;6207281;23;20025;-79
2022/04/29 12:08:44;;;;;;;5.07;2.38;;;12.60;96.30;;;;;;6182385;23;20024;-76
2022/04/29 12:11:11;;;;;;;4.35;1.40;;;12.50;96.30;;;;;;6157175;23;20520;-77
2022/04/29 12:13:39;;;;;;;5.43;1.33;;;12.50;96.40;;;;;;6182067;23;20063;-77
2022/04/29 12:16:06;;;;;;;9.45;2.35;;;12.40;96.70;;;;;;6181149;23;20024;-76
2022/04/29 12:18:46;;;;;;;5.75;1.80;;;12.40;97.10;;;;;;6157083;23;20017;-75
2022/04/29 12:21:19;;;;;;;7.15;1.70;;;12.40;97.50;;;;;;6157051;23;20021;-75
2022/04/29 12:23:45;;;;;;;6.13;2.30;;;12.40;98.00;;;;;;6207757;23;20401;-76
2022/04/29 12:26:11;;;;;;;6.20;2.22;;;12.40;98.40;;;;;;6206817;23;20021;-77
2022/04/29 12:28:37;;;;;;;5.90;2.40;;;12.50;98.70;;;;;;6157407;23;20029;-76
2022/04/29 12:36:55;;;;;;;7.63;2.13;;;13.10;98.00;;;;;;6186703;23;20020;-77
2022/04/29 12:39:47;;;;;;;5.82;2.15;;;13.30;97.40;;;;;;6162103;23;20043;-78
2022/04/29 12:42:21;;;;;;;6.75;2.00;;;13.50;97.00;;;;;;6208304;23;20024;-75
2022/04/29 12:45:04;;;;;;;6.80;2.67;;;14.10;96.50;;;;;;6186401;23;20078;-71
2022/04/29 12:47:43;;;;;;;8.30;2.58;;;14.20;95.80;;;;;;6186369;23;20342;-81
2022/04/29 12:50:28;;;;;;;7.63;2.38;;;14.10;95.80;;;;;;6238180;23;20033;-78
2022/04/29 12:53:04;;;;;;;11.38;2.70;;;14.00;96.00;;;;;;6211327;23;20481;-76
2022/04/29 12:55:53;;;;;;;7.33;2.60;;;13.70;96.70;;;;;;6214781;23;20043;-76
2022/04/29 12:58:27;;;;;;;10.30;2.50;;;13.30;97.60;;;;;;6187462;23;20024;-78
2022/04/29 13:01:07;;;;;;;;;;;13.20;98.40;;;;;;6189117;23;20029;-79
2022/04/29 13:03:37;;;;;;;6.63;2.83;;;13.10;98.50;;;;;;6218201;23;19916;-78
2022/04/29 13:06:11;;;;;;;8.77;3.05;;;12.90;98.20;;;;;;6217057;23;20062;-79
2022/04/29 13:09:09;;;;;;;6.55;2.20;;;12.90;98.10;;;;;;6164575;23;20530;-76
2022/04/29 13:11:36;;;;;;;8.95;2.72;;;12.90;97.40;;;;;;6190207;23;20024;-78
2022/04/29 13:14:05;;;;;;;7.35;2.72;;;13.00;97.60;;;;;;6187428;23;20082;-76
2022/04/29 13:16:31;;;;;;;7.60;2.65;;;13.20;97.60;;;;;;6236919;23;20456;-78
2022/04/29 13:18:56;;;;;;;6.97;2.88;;;13.40;97.50;;;;;;6186517;23;20027;-79
2022/04/29 13:21:32;;;;;;;6.22;3.05;;;13.50;97.30;;;;;;6160317;23;20032;-78
2022/04/29 13:24:01;;;;;;;6.55;2.83;;;13.50;97.30;;;;;;6186436;23;20056;-83
2022/04/29 13:26:37;;;;;;;7.90;2.67;;;13.50;97.20;;;;;;6209805;23;20020;-78
2022/04/29 13:29:03;;;;;;;7.60;2.85;;;13.60;97.20;;;;;;6213385;23;20025;-79
2022/04/29 13:31:30;;;;;;;10.13;3.22;;;13.40;97.50;;;;;;6211192;23;20031;-79
2022/04/29 13:34:07;;;;;;;8.38;3.45;;;13.20;98.60;;;;;;6186101;23;20020;-82
2022/04/29 13:36:35;;;;;;;8.40;3.13;;;12.80;99.00;;;;;;6186509;23;20058;-77
2022/04/29 13:39:08;;;;;;;6.78;2.78;;;12.90;98.80;;;;;;6213187;23;20449;-77
2022/04/29 13:41:34;;;;;;;8.52;3.00;;;12.90;98.80;;;;;;6186817;23;20028;-79
2022/04/29 13:44:02;;;;;;;8.10;3.00;;;12.90;99.00;;;;;;6236722;23;20021;-79
2022/04/29 13:46:29;;;;;;;9.48;2.80;;;12.90;99.00;;;;;;6186254;23;20495;-77